createdAt,value
2022-07-29T00:02:25.182Z,54.49
2022-07-29T00:04:51.561Z,54.37
2022-07-29T00:07:17.916Z,54.65
2022-07-29T00:09:51.696Z,54.60
2022-07-29T00:12:26.561Z,55.04
2022-07-29T00:14:57.312Z,54.74
2022-07-29T00:17:24.883Z,54.35
2022-07-29T00:19:51.379Z,54.79
2022-07-29T00:22:17.777Z,54.75
2022-07-29T00:24:44.130Z,55.12
2022-07-29T00:27:10.545Z,55.23
2022-07-29T00:29:36.939Z,55.32
2022-07-29T00:32:03.873Z,55.46
2022-07-29T00:34:30.808Z,55.08
2022-07-29T00:36:57.862Z,55.25
2022-07-29T00:39:24.386Z,55.47
2022-07-29T00:41:51.279Z,55.56
2022-07-29T00:44:17.752Z,55.60
2022-07-29T00:46:44.363Z,55.69
2022-07-29T00:49:10.924Z,55.49
2022-07-29T00:51:38.214Z,55.52
2022-07-29T00:54:06.005Z,55.96
2022-07-29T00:56:33.550Z,55.45
2022-07-29T00:59:00.783Z,55.81
2022-07-29T01:01:28.057Z,55.70
2022-07-29T01:03:54.531Z,55.79
2022-07-29T01:06:21.229Z,55.42
2022-07-29T01:08:49.015Z,55.20
2022-07-29T01:11:16.898Z,54.97
2022-07-29T01:13:45.258Z,54.98
2022-07-29T01:16:18.963Z,55.04
2022-07-29T01:18:48.078Z,55.30
2022-07-29T01:21:49.529Z,55.17
2022-07-29T01:24:25.088Z,55.28
2022-07-29T01:27:19.465Z,55.72
2022-07-29T01:29:54.936Z,56.60
2022-07-29T01:32:28.833Z,58.32
2022-07-29T01:35:05.312Z,57.86
2022-07-29T01:38:02.104Z,57.53
2022-07-29T01:40:35.294Z,57.33
2022-07-29T01:43:10.142Z,57.19
2022-07-29T01:45:59.776Z,57.96
2022-07-29T01:48:39.879Z,56.92
2022-07-29T01:51:13.747Z,57.03
2022-07-29T01:53:48.688Z,57.04
2022-07-29T01:56:17.806Z,57.40
2022-07-29T01:58:46.375Z,57.17
2022-07-29T02:01:14.304Z,57.07
2022-07-29T02:03:45.658Z,57.10
2022-07-29T02:06:13.335Z,57.35
2022-07-29T02:08:40.544Z,56.89
2022-07-29T02:11:09.211Z,57.26
2022-07-29T02:13:37.758Z,56.63
2022-07-29T02:16:07.511Z,56.73
2022-07-29T02:18:36.767Z,56.53
2022-07-29T02:21:04.304Z,56.61
2022-07-29T02:23:31.952Z,56.91
2022-07-29T02:26:20.244Z,57.22
2022-07-29T02:28:48.200Z,57.60
2022-07-29T02:31:15.346Z,57.92
2022-07-29T02:33:42.708Z,58.14
2022-07-29T02:36:09.827Z,57.83
2022-07-29T02:38:37.071Z,58.05
2022-07-29T02:41:08.734Z,58.15
2022-07-29T02:43:36.609Z,58.23
2022-07-29T02:46:06.695Z,58.43
2022-07-29T02:48:59.189Z,60.45
2022-07-29T02:51:44.006Z,61.74
2022-07-29T02:54:15.573Z,62.33
2022-07-29T02:56:45.191Z,62.03
2022-07-29T02:59:14.875Z,60.77
2022-07-29T03:01:43.752Z,60.41
2022-07-29T03:04:12.550Z,60.67
2022-07-29T03:06:41.149Z,59.58
2022-07-29T03:09:12.966Z,58.51
2022-07-29T03:11:46.275Z,59.51
2022-07-29T03:14:18.458Z,59.28
2022-07-29T03:16:45.859Z,61.47
2022-07-29T03:19:12.349Z,61.33
2022-07-29T03:21:38.717Z,60.90
2022-07-29T03:24:10.098Z,62.32
2022-07-29T03:26:37.036Z,63.18
2022-07-29T03:29:03.383Z,64.59
2022-07-29T03:31:29.808Z,64.57
2022-07-29T03:33:56.238Z,63.04
2022-07-29T03:36:22.562Z,63.35
2022-07-29T03:38:50.031Z,65.51
2022-07-29T03:41:18.120Z,65.81
2022-07-29T03:43:50.672Z,66.26
2022-07-29T03:46:18.684Z,67.10
2022-07-29T03:48:51.490Z,65.49
2022-07-29T03:51:17.946Z,62.14
2022-07-29T03:53:45.382Z,61.61
2022-07-29T03:56:17.770Z,60.93
2022-07-29T03:58:45.208Z,60.56
2022-07-29T04:01:12.631Z,60.09
2022-07-29T04:03:40.079Z,60.63
2022-07-29T04:06:07.939Z,62.76
2022-07-29T04:08:35.397Z,62.11
2022-07-29T04:11:02.603Z,61.74
2022-07-29T04:13:29.339Z,61.08
2022-07-29T04:15:55.995Z,59.37
2022-07-29T04:18:22.372Z,59.62
2022-07-29T04:20:48.778Z,58.92
2022-07-29T04:23:15.212Z,58.90
2022-07-29T04:25:42.167Z,58.73
2022-07-29T04:28:10.232Z,59.14
2022-07-29T04:30:37.849Z,59.46
2022-07-29T04:33:06.843Z,59.13
2022-07-29T04:35:45.814Z,59.58
2022-07-29T04:38:18.956Z,59.86
2022-07-29T04:40:45.384Z,58.77
2022-07-29T04:43:14.263Z,58.74
2022-07-29T04:45:42.081Z,58.86
2022-07-29T04:48:08.504Z,58.90
2022-07-29T04:50:35.017Z,59.19
2022-07-29T04:53:01.384Z,58.92
2022-07-29T04:55:27.728Z,58.72
2022-07-29T04:57:54.071Z,59.07
2022-07-29T05:00:20.451Z,58.69
2022-07-29T05:02:47.052Z,58.36
2022-07-29T05:05:13.463Z,58.85
2022-07-29T05:07:41.755Z,58.40
2022-07-29T05:10:09.182Z,57.72
2022-07-29T05:12:35.667Z,58.16
2022-07-29T05:15:02.071Z,58.58
2022-07-29T05:17:28.544Z,58.07
2022-07-29T05:19:54.915Z,57.70
2022-07-29T05:22:21.823Z,57.53
2022-07-29T05:24:48.191Z,56.89
2022-07-29T05:27:14.563Z,56.92
2022-07-29T05:29:43.187Z,56.65
2022-07-29T05:32:09.956Z,56.50
2022-07-29T05:34:36.346Z,56.25
2022-07-29T05:37:02.924Z,56.41
2022-07-29T05:39:49.289Z,55.09
2022-07-29T05:42:15.669Z,57.08
2022-07-29T05:44:42.120Z,55.52
2022-07-29T05:47:08.772Z,54.94
2022-07-29T05:49:35.430Z,55.98
2022-07-29T05:52:01.824Z,54.21
2022-07-29T05:54:28.191Z,54.71
2022-07-29T05:56:54.532Z,54.42
2022-07-29T05:59:20.937Z,54.21
2022-07-29T06:01:47.391Z,54.90
2022-07-29T06:04:14.105Z,53.50
2022-07-29T06:06:40.807Z,55.21
2022-07-29T06:09:12.190Z,54.39
2022-07-29T06:11:39.409Z,53.71
2022-07-29T06:14:05.780Z,54.78
2022-07-29T06:16:32.287Z,53.57
2022-07-29T06:18:58.735Z,54.65
2022-07-29T06:21:25.059Z,53.30
2022-07-29T06:23:51.454Z,55.09
2022-07-29T06:26:17.814Z,53.82
2022-07-29T06:28:44.247Z,54.76
2022-07-29T06:31:10.688Z,54.60
2022-07-29T06:33:37.055Z,54.54
2022-07-29T06:36:06.155Z,53.70
2022-07-29T06:38:40.371Z,53.49
2022-07-29T06:41:09.519Z,52.12
2022-07-29T06:43:45.619Z,50.19
2022-07-29T06:46:18.727Z,51.26
2022-07-29T06:48:46.145Z,51.56
2022-07-29T06:51:12.787Z,51.68
2022-07-29T06:53:39.775Z,51.35
2022-07-29T06:56:25.103Z,52.38
2022-07-29T06:58:51.532Z,51.60
2022-07-29T07:01:17.946Z,51.75
2022-07-29T07:03:44.383Z,51.68
2022-07-29T07:06:14.840Z,51.64
2022-07-29T07:08:41.582Z,52.21
2022-07-29T07:11:08.003Z,50.36
2022-07-29T07:13:34.344Z,49.66
2022-07-29T07:16:04.020Z,49.72
2022-07-29T07:18:30.821Z,49.06
2022-07-29T07:20:58.007Z,48.50
2022-07-29T07:23:24.438Z,48.52
2022-07-29T07:25:50.816Z,48.71
2022-07-29T07:28:17.172Z,49.22
2022-07-29T07:30:43.752Z,48.04
2022-07-29T07:33:10.216Z,45.65
2022-07-29T07:35:36.567Z,46.32
2022-07-29T07:38:02.933Z,47.16
2022-07-29T07:40:29.278Z,43.62
2022-07-29T07:42:55.651Z,43.39
2022-07-29T07:45:21.971Z,43.82
2022-07-29T07:47:48.402Z,41.17
2022-07-29T07:50:18.708Z,44.30
2022-07-29T07:52:54.246Z,44.29
2022-07-29T07:55:20.816Z,44.00
2022-07-29T07:57:47.398Z,43.13
2022-07-29T08:00:15.775Z,43.31
2022-07-29T08:02:42.299Z,43.37
2022-07-29T08:05:12.598Z,42.46
2022-07-29T08:07:39.758Z,42.74
2022-07-29T08:10:06.597Z,41.48
2022-07-29T08:12:33.022Z,41.96
2022-07-29T08:14:59.408Z,42.15
2022-07-29T08:17:25.754Z,42.23
2022-07-29T08:19:52.106Z,42.82
2022-07-29T08:22:18.523Z,41.84
2022-07-29T08:24:44.946Z,41.25
2022-07-29T08:27:33.489Z,39.01
2022-07-29T08:29:58.441Z,39.13
2022-07-29T08:32:43.765Z,40.68
2022-07-29T08:35:11.273Z,40.98
2022-07-29T08:37:37.752Z,40.85
2022-07-29T08:40:04.519Z,40.31
2022-07-29T08:42:31.413Z,39.93
2022-07-29T08:44:58.811Z,38.92
2022-07-29T08:47:26.541Z,37.98
2022-07-29T08:49:52.997Z,39.40
2022-07-29T08:52:20.977Z,37.97
2022-07-29T08:54:48.436Z,37.76
2022-07-29T08:57:15.083Z,38.84
2022-07-29T08:59:43.619Z,37.53
2022-07-29T09:02:22.495Z,38.51
2022-07-29T09:04:49.832Z,38.17
2022-07-29T09:07:17.949Z,39.91
2022-07-29T09:09:44.639Z,43.19
2022-07-29T09:12:11.610Z,41.09
2022-07-29T09:14:39.142Z,41.72
2022-07-29T09:17:06.063Z,41.62
2022-07-29T09:19:37.430Z,41.00
2022-07-29T09:22:07.074Z,41.52
2022-07-29T09:24:43.547Z,42.36
2022-07-29T09:27:22.255Z,41.00
2022-07-29T09:30:06.339Z,38.88
2022-07-29T09:32:34.305Z,40.80
2022-07-29T09:35:18.899Z,38.89
2022-07-29T09:37:45.755Z,39.41
2022-07-29T09:40:17.635Z,41.71
2022-07-29T09:42:45.115Z,42.00
2022-07-29T09:45:12.066Z,39.09
2022-07-29T09:47:48.558Z,37.08
2022-07-29T09:50:15.200Z,37.92
2022-07-29T09:52:50.603Z,37.58
2022-07-29T09:55:19.828Z,38.04
2022-07-29T09:57:47.684Z,37.66
2022-07-29T10:00:18.187Z,36.99
2022-07-29T10:02:47.058Z,36.56
2022-07-29T10:05:23.376Z,36.21
2022-07-29T10:07:57.178Z,35.02
2022-07-29T10:10:24.035Z,36.12
2022-07-29T10:12:56.915Z,34.22
2022-07-29T10:15:25.888Z,35.28
2022-07-29T10:17:53.563Z,37.26
2022-07-29T10:20:21.594Z,37.03
2022-07-29T10:22:53.950Z,37.80
2022-07-29T10:25:21.425Z,37.47
2022-07-29T10:27:48.903Z,37.55
2022-07-29T10:30:16.739Z,37.64
2022-07-29T10:33:04.777Z,37.35
2022-07-29T10:36:14.342Z,35.67
2022-07-29T10:39:03.247Z,35.75
2022-07-29T10:41:53.575Z,36.54
2022-07-29T10:44:23.026Z,35.62
2022-07-29T10:46:51.415Z,35.50
2022-07-29T10:49:20.095Z,35.90
2022-07-29T10:52:10.720Z,34.58
2022-07-29T10:54:37.686Z,34.62
2022-07-29T10:57:21.595Z,36.54
2022-07-29T11:00:01.408Z,35.08
2022-07-29T11:02:42.603Z,35.09
2022-07-29T11:05:14.736Z,36.07
2022-07-29T11:08:19.993Z,37.61
2022-07-29T11:10:51.555Z,36.48
2022-07-29T11:13:47.290Z,35.59
2022-07-29T11:16:16.623Z,35.57
2022-07-29T11:19:11.272Z,35.74
2022-07-29T11:22:00.316Z,35.71
2022-07-29T11:24:30.257Z,35.70
2022-07-29T11:27:10.981Z,36.73
2022-07-29T11:29:48.438Z,34.77
2022-07-29T11:35:36.734Z,34.96
2022-07-29T11:38:23.479Z,33.54
2022-07-29T11:41:08.370Z,34.26
2022-07-29T11:43:51.948Z,34.28
2022-07-29T11:46:47.843Z,32.55
2022-07-29T11:49:14.623Z,32.19
2022-07-29T11:54:57.182Z,32.03
2022-07-29T11:57:22.122Z,31.58
2022-07-29T11:59:48.633Z,32.11
2022-07-29T12:02:37.049Z,34.72
2022-07-29T12:05:01.899Z,32.73
2022-07-29T12:07:01.471Z,33.66
2022-07-29T12:07:38.250Z,34.84
2022-07-29T12:10:07.598Z,34.25
2022-07-29T12:12:38.110Z,33.66
2022-07-29T12:15:15.696Z,33.96
2022-07-29T12:17:42.333Z,34.53
2022-07-29T12:20:08.924Z,34.41
2022-07-29T12:22:40.791Z,35.93
2022-07-29T12:25:32.312Z,34.44
2022-07-29T12:28:01.133Z,32.06
2022-07-29T12:30:48.084Z,32.60
2022-07-29T12:33:17.401Z,34.67
2022-07-29T12:35:58.098Z,35.67
2022-07-29T12:38:30.479Z,33.11
2022-07-29T12:40:57.004Z,33.39
2022-07-29T12:43:25.529Z,33.96
2022-07-29T12:45:54.471Z,34.34
2022-07-29T12:48:41.400Z,33.61
2022-07-29T12:51:09.019Z,33.91
2022-07-29T12:53:36.185Z,34.01
2022-07-29T12:56:15.570Z,36.39
2022-07-29T12:58:51.389Z,36.02
2022-07-29T13:01:19.681Z,36.71
2022-07-29T13:03:57.186Z,36.25
2022-07-29T13:06:32.370Z,35.90
2022-07-29T13:09:06.413Z,35.92
2022-07-29T13:11:45.301Z,36.26
2022-07-29T13:14:35.724Z,36.07
2022-07-29T13:17:10.040Z,36.83
2022-07-29T13:19:45.101Z,37.82
2022-07-29T13:22:16.412Z,36.91
2022-07-29T13:24:48.498Z,37.55
2022-07-29T13:27:18.906Z,37.00
2022-07-29T13:29:45.614Z,37.55
2022-07-29T13:32:12.675Z,38.64
2022-07-29T13:34:38.994Z,40.23
2022-07-29T13:37:05.370Z,39.85
2022-07-29T13:39:31.840Z,38.58
2022-07-29T13:41:58.528Z,38.55
2022-07-29T13:44:26.712Z,37.04
2022-07-29T13:46:53.047Z,36.71
2022-07-29T13:49:19.413Z,36.17
2022-07-29T13:51:45.774Z,36.27
2022-07-29T13:54:12.141Z,37.17
2022-07-29T13:56:38.478Z,38.23
2022-07-29T13:59:04.875Z,39.60
2022-07-29T14:01:31.374Z,37.71
2022-07-29T14:03:57.805Z,37.30
2022-07-29T14:06:24.175Z,37.29
2022-07-29T14:08:50.516Z,37.67
2022-07-29T14:11:16.884Z,38.92
2022-07-29T14:13:43.223Z,37.44
2022-07-29T14:16:09.611Z,37.88
2022-07-29T14:18:35.943Z,37.28
2022-07-29T14:21:02.736Z,37.58
2022-07-29T14:23:29.094Z,38.38
2022-07-29T14:25:55.494Z,42.04
2022-07-29T14:28:22.397Z,40.99
2022-07-29T14:30:48.752Z,42.93
2022-07-29T14:33:15.111Z,42.25
2022-07-29T14:35:41.459Z,41.10
2022-07-29T14:38:07.940Z,41.99
2022-07-29T14:40:34.404Z,43.36
2022-07-29T14:43:00.740Z,41.70
2022-07-29T14:45:27.112Z,40.52
2022-07-29T14:47:57.268Z,40.82
2022-07-29T14:50:31.617Z,41.52
2022-07-29T14:52:58.503Z,42.89
2022-07-29T14:55:24.825Z,43.94
2022-07-29T14:57:51.158Z,43.56
2022-07-29T15:00:18.380Z,44.02
2022-07-29T15:03:02.407Z,43.57
2022-07-29T15:05:30.103Z,43.58
2022-07-29T15:07:56.572Z,43.29
2022-07-29T15:10:24.729Z,44.52
2022-07-29T15:12:51.103Z,43.23
2022-07-29T15:15:17.437Z,43.13
2022-07-29T15:17:43.770Z,43.09
2022-07-29T15:20:10.606Z,42.99
2022-07-29T15:22:36.929Z,43.60
2022-07-29T15:25:03.384Z,45.02
2022-07-29T15:27:29.776Z,45.23
2022-07-29T15:29:56.132Z,45.58
2022-07-29T15:32:22.455Z,45.56
2022-07-29T15:34:48.791Z,45.74
2022-07-29T15:37:15.132Z,45.79
2022-07-29T15:39:41.486Z,45.85
2022-07-29T15:42:07.868Z,46.94
2022-07-29T15:44:34.913Z,47.13
2022-07-29T15:47:01.917Z,47.22
2022-07-29T15:49:28.915Z,47.54
2022-07-29T15:52:13.100Z,47.17
2022-07-29T15:54:40.332Z,49.70
2022-07-29T15:57:07.511Z,52.25
2022-07-29T15:59:34.231Z,55.26
2022-07-29T16:02:01.701Z,53.91
2022-07-29T16:04:28.306Z,55.75
2022-07-29T16:06:55.271Z,56.08
2022-07-29T16:09:21.827Z,55.69
2022-07-29T16:11:48.283Z,55.85
2022-07-29T16:14:14.790Z,55.55
2022-07-29T16:16:41.234Z,54.57
2022-07-29T16:19:08.556Z,56.45
2022-07-29T16:21:35.409Z,55.41
2022-07-29T16:24:02.671Z,56.46
2022-07-29T16:26:29.121Z,55.31
2022-07-29T16:28:55.987Z,55.31
2022-07-29T16:31:23.057Z,55.21
2022-07-29T16:33:54.390Z,55.91
2022-07-29T16:36:22.883Z,55.63
2022-07-29T16:38:49.954Z,56.60
2022-07-29T16:41:16.512Z,57.44
2022-07-29T16:43:42.981Z,56.75
2022-07-29T16:46:14.034Z,56.26
2022-07-29T16:48:45.618Z,56.05
2022-07-29T16:51:14.363Z,55.95
2022-07-29T16:53:41.314Z,55.01
2022-07-29T16:56:08.489Z,54.08
2022-07-29T16:58:41.758Z,55.14
2022-07-29T17:01:10.126Z,54.98
2022-07-29T17:03:36.521Z,55.10
2022-07-29T17:06:02.905Z,55.36
2022-07-29T17:08:29.249Z,56.48
2022-07-29T17:10:55.569Z,56.13
2022-07-29T17:13:21.902Z,55.85
2022-07-29T17:15:48.335Z,55.43
2022-07-29T17:18:14.760Z,56.21
2022-07-29T17:20:42.123Z,57.58
2022-07-29T17:23:08.616Z,58.40
2022-07-29T17:25:35.068Z,58.22
2022-07-29T17:28:01.561Z,59.44
2022-07-29T17:30:28.733Z,61.21
2022-07-29T17:32:55.109Z,62.90
2022-07-29T17:35:21.443Z,66.49
2022-07-29T17:37:47.775Z,67.30
2022-07-29T17:40:14.096Z,68.66
2022-07-29T17:42:40.434Z,67.23
2022-07-29T17:45:07.432Z,66.38
2022-07-29T17:47:33.750Z,65.13
2022-07-29T17:50:00.162Z,65.28
2022-07-29T17:52:26.501Z,65.26
2022-07-29T17:54:52.818Z,65.71
2022-07-29T17:57:19.151Z,66.17
2022-07-29T17:59:45.497Z,66.78
2022-07-29T18:02:11.887Z,66.39
2022-07-29T18:04:38.461Z,66.24
2022-07-29T18:07:04.782Z,65.98
2022-07-29T18:09:31.134Z,67.29
2022-07-29T18:11:57.478Z,67.09
2022-07-29T18:14:23.822Z,67.42
2022-07-29T18:16:50.233Z,67.83
2022-07-29T18:19:16.598Z,68.26
2022-07-29T18:21:51.926Z,68.99
2022-07-29T18:24:21.202Z,68.91
2022-07-29T18:26:47.553Z,68.22
2022-07-29T18:29:13.908Z,68.20
2022-07-29T18:31:40.287Z,68.02
2022-07-29T18:34:06.682Z,69.53
2022-07-29T18:36:33.019Z,70.50
2022-07-29T18:38:59.369Z,69.19
2022-07-29T18:41:25.714Z,69.56
2022-07-29T18:43:52.040Z,71.75
2022-07-29T18:46:18.460Z,73.51
2022-07-29T18:48:44.859Z,76.53
2022-07-29T18:51:11.206Z,76.93
2022-07-29T18:53:37.661Z,76.77
2022-07-29T18:56:04.206Z,76.95
2022-07-29T18:58:30.558Z,77.04
2022-07-29T19:00:56.874Z,76.90
2022-07-29T19:03:23.201Z,77.53
2022-07-29T19:05:49.649Z,77.98
2022-07-29T19:08:15.985Z,78.03
2022-07-29T19:10:42.345Z,78.44
2022-07-29T19:13:08.803Z,79.21
2022-07-29T19:15:36.708Z,79.13
2022-07-29T19:18:03.231Z,80.09
2022-07-29T19:20:29.563Z,81.07
2022-07-29T19:22:55.944Z,81.80
2022-07-29T19:25:22.422Z,82.00
2022-07-29T19:27:48.752Z,81.36
2022-07-29T19:30:15.193Z,81.75
2022-07-29T19:32:41.762Z,82.72
2022-07-29T19:35:08.220Z,82.21
2022-07-29T19:37:34.555Z,81.53
2022-07-29T19:40:00.881Z,81.45
2022-07-29T19:42:27.197Z,82.99
2022-07-29T19:44:53.649Z,82.67
2022-07-29T19:47:19.965Z,82.17
2022-07-29T19:49:46.308Z,82.41
2022-07-29T19:52:12.635Z,82.37
2022-07-29T19:54:38.977Z,83.14
2022-07-29T19:57:05.341Z,83.61
2022-07-29T19:59:31.663Z,83.41
2022-07-29T20:01:58.048Z,82.39
2022-07-29T20:04:24.420Z,81.71
2022-07-29T20:06:50.778Z,80.14
2022-07-29T20:09:20.549Z,80.05
2022-07-29T20:11:47.225Z,79.54
2022-07-29T20:14:13.645Z,80.77
2022-07-29T20:16:39.974Z,80.91
2022-07-29T20:19:06.318Z,82.60
2022-07-29T20:21:32.655Z,81.90
2022-07-29T20:23:59.232Z,81.00
2022-07-29T20:26:25.556Z,81.02
2022-07-29T20:28:51.955Z,81.65
2022-07-29T20:31:18.332Z,80.74
2022-07-29T20:33:45.013Z,80.69
2022-07-29T20:36:11.420Z,82.11
2022-07-29T20:38:37.828Z,83.92
2022-07-29T20:41:04.379Z,85.53
2022-07-29T20:43:30.704Z,86.11
2022-07-29T20:46:03.033Z,85.92
2022-07-29T20:48:29.403Z,85.67
2022-07-29T20:50:55.807Z,86.29
2022-07-29T20:53:22.899Z,86.61
2022-07-29T20:55:49.342Z,87.15
2022-07-29T20:58:15.691Z,87.32
2022-07-29T21:00:42.022Z,87.40
2022-07-29T21:03:08.436Z,87.60
2022-07-29T21:05:36.818Z,87.72
2022-07-29T21:08:03.803Z,87.67
2022-07-29T21:10:30.155Z,87.96
2022-07-29T21:12:56.503Z,87.94
2022-07-29T21:15:22.914Z,88.01
2022-07-29T21:17:49.242Z,88.17
2022-07-29T21:20:17.247Z,88.56
2022-07-29T21:22:44.519Z,89.02
2022-07-29T21:25:11.695Z,89.18
2022-07-29T21:27:38.394Z,89.32
2022-07-29T21:30:06.896Z,88.27
2022-07-29T21:32:33.313Z,87.95
2022-07-29T21:34:59.744Z,87.95
2022-07-29T21:37:26.145Z,88.40
2022-07-29T21:39:52.480Z,88.49
2022-07-29T21:42:18.871Z,88.29
2022-07-29T21:44:45.337Z,88.33
2022-07-29T21:47:11.801Z,88.19
2022-07-29T21:49:38.282Z,88.01
2022-07-29T21:52:05.613Z,87.93
2022-07-29T21:54:34.314Z,88.85
2022-07-29T21:57:00.643Z,88.94
2022-07-29T21:59:27.418Z,88.38
2022-07-29T22:01:53.788Z,88.12
2022-07-29T22:04:20.516Z,88.16
2022-07-29T22:06:46.924Z,87.49
2022-07-29T22:09:13.319Z,87.20
2022-07-29T22:11:39.751Z,87.42
2022-07-29T22:14:06.089Z,86.84
2022-07-29T22:16:32.484Z,86.93
2022-07-29T22:18:58.880Z,87.20
2022-07-29T22:21:25.320Z,87.63
2022-07-29T22:23:51.650Z,87.68
2022-07-29T22:26:18.007Z,88.63
2022-07-29T22:28:44.338Z,87.33
2022-07-29T22:31:10.760Z,86.06
2022-07-29T22:33:37.202Z,85.61
2022-07-29T22:36:03.758Z,85.07
2022-07-29T22:38:30.163Z,85.16
2022-07-29T22:41:00.485Z,85.36
2022-07-29T22:43:27.765Z,85.04
2022-07-29T22:45:54.140Z,86.27
2022-07-29T22:48:20.522Z,86.28
2022-07-29T22:50:46.886Z,86.73
2022-07-29T22:53:13.250Z,86.77
2022-07-29T22:55:39.647Z,87.62
2022-07-29T22:58:06.057Z,88.72
2022-07-29T23:00:32.528Z,88.97
2022-07-29T23:02:58.910Z,89.22
2022-07-29T23:05:25.309Z,89.58
2022-07-29T23:07:51.700Z,89.41
2022-07-29T23:10:18.118Z,89.21
2022-07-29T23:12:44.454Z,89.54
2022-07-29T23:15:10.808Z,89.69
2022-07-29T23:17:37.181Z,89.93
2022-07-29T23:20:08.231Z,90.42
2022-07-29T23:22:36.284Z,90.40
2022-07-29T23:25:03.724Z,89.88
2022-07-29T23:27:30.121Z,89.81
2022-07-29T23:29:56.447Z,89.83
2022-07-29T23:32:22.798Z,90.12
2022-07-29T23:34:49.142Z,90.19
2022-07-29T23:37:15.470Z,89.94
2022-07-29T23:39:41.956Z,89.58
2022-07-29T23:42:09.383Z,89.73
2022-07-29T23:44:35.718Z,89.84
2022-07-29T23:47:02.600Z,90.25
2022-07-29T23:49:29.116Z,90.05
2022-07-29T23:51:55.491Z,89.27
2022-07-29T23:54:21.822Z,89.46
2022-07-29T23:56:48.166Z,90.00
2022-07-29T23:59:14.490Z,90.68
